createdAt,value
2023-03-14T00:00:25.485Z,91594.17
2023-03-14T00:03:50.067Z,91595.34
2023-03-14T00:07:39.292Z,91588.41
2023-03-14T00:11:19.780Z,91588.27
2023-03-14T00:14:50.598Z,91581.51
2023-03-14T00:18:19.036Z,91568.35
2023-03-14T00:21:59.307Z,91560.22
2023-03-14T00:24:59.665Z,91552.63
2023-03-14T00:28:32.285Z,91551.45
2023-03-14T00:32:14.558Z,91549.93
2023-03-14T00:35:21.886Z,91544.42
2023-03-14T00:39:11.120Z,91546.33
2023-03-14T00:43:00.309Z,91543.60
2023-03-14T00:46:49.518Z,91541.08
2023-03-14T00:54:20.347Z,91542.48
2023-03-14T00:58:09.743Z,91542.39
2023-03-14T01:01:54.260Z,91532.16
2023-03-14T01:05:43.636Z,91524.52
2023-03-14T01:09:32.572Z,91512.54
2023-03-14T01:13:21.831Z,91508.93
2023-03-14T01:17:03.475Z,91510.98
2023-03-14T01:20:52.762Z,91507.44
2023-03-14T01:24:42.097Z,91509.01
2023-03-14T01:28:30.169Z,91508.70
2023-03-14T01:32:09.302Z,91508.70
2023-03-14T01:35:06.688Z,91500.09
2023-03-14T01:38:54.505Z,91500.34
2023-03-14T01:42:43.719Z,91501.81
2023-03-14T01:46:46.393Z,91497.89
2023-03-14T01:50:04.679Z,91487.08
2023-03-14T01:52:50.212Z,91478.91
2023-03-14T01:56:38.319Z,91474.51
2023-03-14T02:00:27.573Z,91469.83
2023-03-14T02:04:09.326Z,91464.95
2023-03-14T02:08:04.854Z,91470.58
2023-03-14T02:11:54.110Z,91466.61
2023-03-14T02:16:01.564Z,91459.95
2023-03-14T02:19:59.704Z,91460.66
2023-03-14T02:23:48.977Z,91459.48
2023-03-14T02:27:47.267Z,91451.57
2023-03-14T02:31:36.569Z,91450.79
2023-03-14T02:35:24.562Z,91449.36
2023-03-14T02:39:07.930Z,91439.54
2023-03-14T02:42:57.215Z,91430.59
2023-03-14T02:46:37.568Z,91428.36
2023-03-14T02:50:26.518Z,91426.74
2023-03-14T02:53:59.205Z,91424.39
2023-03-14T02:57:40.925Z,91418.24
2023-03-14T03:01:22.977Z,91415.18
2023-03-14T03:05:03.649Z,91417.29
2023-03-14T03:08:52.860Z,91421.60
2023-03-14T03:12:42.110Z,91420.81
2023-03-14T03:16:22.718Z,91419.05
2023-03-14T03:20:11.757Z,91417.27
2023-03-14T03:24:01.161Z,91419.66
2023-03-14T03:27:49.352Z,91426.83
2023-03-14T03:31:16.965Z,91423.77
2023-03-14T03:34:39.028Z,91419.21
2023-03-14T03:37:55.563Z,91419.50
2023-03-14T03:41:25.142Z,91425.73
2023-03-14T03:44:50.897Z,91428.08
2023-03-14T03:48:27.097Z,91431.66
2023-03-14T03:51:59.483Z,91428.02
2023-03-14T03:55:40.312Z,91424.90
2023-03-14T03:59:18.256Z,91424.97
2023-03-14T04:02:32.192Z,91427.55
2023-03-14T04:06:21.730Z,91423.67
2023-03-14T04:09:25.336Z,91422.14
2023-03-14T04:12:49.474Z,91420.39
2023-03-14T04:16:18.470Z,91416.44
2023-03-14T04:19:23.150Z,91414.62
2023-03-14T04:22:56.868Z,91419.88
2023-03-14T04:26:24.022Z,91415.50
2023-03-14T04:29:35.537Z,91416.65
2023-03-14T04:32:56.147Z,91412.13
2023-03-14T04:36:45.568Z,91415.16
2023-03-14T04:40:28.442Z,91414.36
2023-03-14T04:44:17.617Z,91411.83
2023-03-14T04:47:50.403Z,91407.15
2023-03-14T04:50:35.950Z,91401.31
2023-03-14T04:53:57.973Z,91401.67
2023-03-14T04:57:18.676Z,91400.44
2023-03-14T05:00:37.159Z,91397.00
2023-03-14T05:04:08.745Z,91399.95
2023-03-14T05:07:40.485Z,91396.14
2023-03-14T05:11:25.405Z,91394.44
2023-03-14T05:15:17.085Z,91390.19
2023-03-14T05:18:41.010Z,91387.92
2023-03-14T05:21:48.584Z,91385.73
2023-03-14T05:25:00.485Z,91374.30
2023-03-14T05:28:55.440Z,91366.41
2023-03-14T05:31:53.921Z,91370.11
2023-03-14T05:35:04.477Z,91367.22
2023-03-14T05:38:41.032Z,91365.27
2023-03-14T05:42:03.672Z,91362.98
2023-03-14T05:45:33.883Z,91364.20
2023-03-14T05:49:04.893Z,91363.64
2023-03-14T05:52:05.692Z,91358.85
2023-03-14T05:56:10.265Z,91365.04
2023-03-14T05:59:25.799Z,91361.91
2023-03-14T06:02:33.037Z,91361.80
2023-03-14T06:05:27.162Z,91356.95
2023-03-14T06:08:17.953Z,91359.85
2023-03-14T06:11:03.909Z,91360.07
2023-03-14T06:13:38.172Z,91357.23
2023-03-14T06:16:16.584Z,91357.52
2023-03-14T06:19:11.455Z,91358.21
2023-03-14T06:21:40.559Z,91355.14
2023-03-14T06:24:09.234Z,91353.02
2023-03-14T06:26:42.745Z,91351.34
2023-03-14T06:29:14.632Z,91348.17
2023-03-14T06:32:03.757Z,91352.02
2023-03-14T06:34:40.013Z,91344.00
2023-03-14T06:37:08.765Z,91340.94
2023-03-14T06:39:38.642Z,91337.38
2023-03-14T06:42:12.297Z,91331.86
2023-03-14T06:44:41.114Z,91330.11
2023-03-14T06:47:09.589Z,91326.81
2023-03-14T06:49:40.987Z,91324.17
2023-03-14T06:52:09.983Z,91321.60
2023-03-14T06:54:38.428Z,91314.84
2023-03-14T06:57:06.705Z,91309.18
2023-03-14T06:59:35.092Z,91308.28
2023-03-14T07:02:03.959Z,91312.14
2023-03-14T07:04:35.251Z,91307.55
2023-03-14T07:07:03.731Z,91307.91
2023-03-14T07:09:35.387Z,91305.06
2023-03-14T07:12:05.356Z,91301.27
2023-03-14T07:14:33.867Z,91299.09
2023-03-14T07:17:02.289Z,91298.55
2023-03-14T07:19:30.820Z,91296.08
2023-03-14T07:35:21.677Z,91280.91
2023-03-14T07:37:50.165Z,91277.05
2023-03-14T07:40:20.487Z,91276.52
2023-03-14T07:42:49.498Z,91276.58
2023-03-14T07:45:25.124Z,91271.48
2023-03-14T07:47:53.693Z,91271.77
2023-03-14T07:50:22.013Z,91273.46
2023-03-14T07:52:53.725Z,91270.54
2023-03-14T07:55:22.601Z,91269.96
2023-03-14T07:57:50.957Z,91271.10
2023-03-14T08:00:19.947Z,91269.80
2023-03-14T08:02:48.347Z,91266.08
2023-03-14T08:05:16.881Z,91259.10
2023-03-14T08:07:45.221Z,91258.17
2023-03-14T08:10:16.966Z,91257.34
2023-03-14T08:12:47.942Z,91255.06
2023-03-14T08:15:16.249Z,91250.36
2023-03-14T08:17:51.927Z,91253.05
2023-03-14T08:20:24.205Z,91251.05
2023-03-14T08:22:52.412Z,91243.11
2023-03-14T08:25:20.746Z,91241.52
2023-03-14T08:27:49.195Z,91241.47
2023-03-14T08:30:19.273Z,91234.19
2023-03-14T08:32:47.895Z,91235.98
2023-03-14T08:35:17.145Z,91231.21
2023-03-14T08:37:45.520Z,91231.67
2023-03-14T08:40:14.387Z,91229.60
2023-03-14T08:42:43.351Z,91229.62
2023-03-14T08:45:16.112Z,91223.79
2023-03-14T08:47:45.857Z,91214.31
2023-03-14T08:50:16.438Z,91214.49
2023-03-14T08:52:45.098Z,91208.81
2023-03-14T08:55:13.464Z,91212.33
2023-03-14T08:57:41.881Z,91205.24
2023-03-14T09:00:13.599Z,91199.35
2023-03-14T09:02:43.079Z,91197.19
2023-03-14T09:05:12.295Z,91193.59
2023-03-14T09:07:41.815Z,91191.37
2023-03-14T09:10:11.639Z,91190.06
2023-03-14T09:12:39.953Z,91187.72
2023-03-14T09:15:09.624Z,91186.53
2023-03-14T09:17:38.111Z,91182.92
2023-03-14T09:20:10.174Z,91181.16
2023-03-14T09:22:38.489Z,91177.92
2023-03-14T09:25:07.796Z,91172.88
2023-03-14T09:27:36.109Z,91170.73
2023-03-14T09:30:05.726Z,91166.81
2023-03-14T09:32:33.964Z,91170.04
2023-03-14T09:35:02.469Z,91163.42
2023-03-14T09:37:30.921Z,91156.13
2023-03-14T09:39:59.220Z,91155.64
2023-03-14T09:42:28.920Z,91151.28
2023-03-14T09:45:08.932Z,91145.91
2023-03-14T09:47:41.448Z,91146.67
2023-03-14T09:50:16.984Z,91148.63
2023-03-14T09:52:57.337Z,91147.14
2023-03-14T09:55:25.712Z,91146.24
2023-03-14T09:58:01.204Z,91142.73
2023-03-14T10:00:31.892Z,91136.22
2023-03-14T10:03:26.668Z,91129.82
2023-03-14T10:05:57.224Z,91123.09
2023-03-14T10:08:25.675Z,91124.14
2023-03-14T10:10:54.906Z,91122.80
2023-03-14T10:13:27.153Z,91115.55
2023-03-14T10:16:00.548Z,91110.68
2023-03-14T10:18:31.547Z,91100.13
2023-03-14T10:21:18.018Z,91099.15
2023-03-14T10:23:48.000Z,91098.20
2023-03-14T10:26:24.460Z,91089.27
2023-03-14T10:28:54.813Z,91085.23
2023-03-14T10:31:27.257Z,91081.39
2023-03-14T10:34:05.450Z,91077.64
2023-03-14T10:36:36.224Z,91068.94
2023-03-14T10:39:35.612Z,91066.20
2023-03-14T10:42:12.233Z,91062.52
2023-03-14T10:44:42.487Z,91061.08
2023-03-14T10:47:20.547Z,91060.83
2023-03-14T10:49:49.056Z,91059.31
2023-03-14T10:52:30.905Z,91059.12
2023-03-14T10:55:03.349Z,91052.70
2023-03-14T10:57:31.809Z,91048.14
2023-03-14T11:00:00.366Z,91041.92
2023-03-14T11:02:44.195Z,91038.01
2023-03-14T11:05:31.593Z,91036.66
2023-03-14T11:08:10.708Z,91034.65
2023-03-14T11:10:44.129Z,91030.11
2023-03-14T11:13:40.519Z,91025.02
2023-03-14T11:16:28.181Z,91020.55
2023-03-14T11:19:24.377Z,91018.61
2023-03-14T11:22:33.066Z,91006.16
2023-03-14T11:25:21.907Z,90992.70
2023-03-14T11:28:03.112Z,90986.78
2023-03-14T11:31:11.979Z,90983.85
2023-03-14T11:34:19.941Z,90979.78
2023-03-14T11:37:36.989Z,90972.02
2023-03-14T11:40:29.549Z,90966.85
2023-03-14T11:44:12.917Z,90967.14
2023-03-14T11:47:11.398Z,90961.00
2023-03-14T11:50:03.729Z,90954.70
2023-03-14T11:52:51.782Z,90948.00
2023-03-14T11:55:39.164Z,90947.57
2023-03-14T11:58:53.558Z,90940.45
2023-03-14T12:01:44.330Z,90932.66
2023-03-14T12:04:20.675Z,90927.66
2023-03-14T12:07:03.253Z,90919.67
2023-03-14T12:09:52.681Z,90920.06
2023-03-14T12:12:30.138Z,90911.96
2023-03-14T12:15:26.123Z,90907.10
2023-03-14T12:18:23.548Z,90908.11
2023-03-14T12:21:22.247Z,90905.72
2023-03-14T12:23:59.161Z,90903.64
2023-03-14T12:26:44.572Z,90896.91
2023-03-14T12:29:20.019Z,90886.63
2023-03-14T12:32:12.588Z,90882.58
2023-03-14T12:34:50.381Z,90876.58
2023-03-14T12:37:46.577Z,90876.11
2023-03-14T12:40:40.609Z,90879.32
2023-03-14T12:43:57.393Z,90877.65
2023-03-14T12:47:05.388Z,90874.94
2023-03-14T12:49:39.182Z,90874.19
2023-03-14T12:52:55.552Z,90870.81
2023-03-14T12:56:12.507Z,90867.10
2023-03-14T12:59:15.886Z,90860.25
2023-03-14T13:01:57.393Z,90857.56
2023-03-14T13:04:47.205Z,90853.91
2023-03-14T13:07:50.954Z,90847.98
2023-03-14T13:10:38.206Z,90846.88
2023-03-14T13:13:07.546Z,90839.77
2023-03-14T13:15:44.810Z,90835.68
2023-03-14T13:18:18.069Z,90831.95
2023-03-14T13:21:00.329Z,90828.34
2023-03-14T13:23:31.502Z,90821.40
2023-03-14T13:26:01.773Z,90818.74
2023-03-14T13:28:32.265Z,90816.44
2023-03-14T13:31:03.546Z,90813.58
2023-03-14T13:33:34.252Z,90808.98
2023-03-14T13:36:06.587Z,90802.08
2023-03-14T13:38:37.435Z,90796.60
2023-03-14T13:41:08.792Z,90794.36
2023-03-14T13:43:42.243Z,90791.92
2023-03-14T13:46:21.472Z,90791.70
2023-03-14T13:48:53.471Z,90788.77
2023-03-14T13:51:23.591Z,90784.02
2023-03-14T13:53:54.317Z,90778.64
2023-03-14T13:56:25.527Z,90770.34
2023-03-14T13:58:54.228Z,90770.77
2023-03-14T14:01:38.956Z,90765.76
2023-03-14T14:04:15.425Z,90760.83
2023-03-14T14:06:59.229Z,90760.42
2023-03-14T14:09:31.456Z,90755.16
2023-03-14T14:12:15.489Z,90750.23
2023-03-14T14:14:48.123Z,90750.65
2023-03-14T14:17:20.661Z,90751.96
2023-03-14T14:19:49.952Z,90748.98
2023-03-14T14:22:19.371Z,90746.70
2023-03-14T14:24:48.852Z,90742.98
2023-03-14T14:27:36.133Z,90738.22
2023-03-14T14:30:32.519Z,90734.30
2023-03-14T14:33:19.708Z,90727.01
2023-03-14T14:35:54.730Z,90719.85
2023-03-14T14:38:23.809Z,90719.25
2023-03-14T14:40:55.954Z,90716.15
2023-03-14T14:43:28.490Z,90714.33
2023-03-14T14:45:59.205Z,90714.26
2023-03-14T14:48:29.175Z,90707.51
2023-03-14T14:51:00.549Z,90707.63
2023-03-14T14:53:37.742Z,90708.61
2023-03-14T14:56:24.424Z,90708.77
2023-03-14T14:59:00.708Z,90710.53
2023-03-14T15:01:40.465Z,90710.08
2023-03-14T15:04:14.948Z,90710.44
2023-03-14T15:06:50.336Z,90711.23
2023-03-14T15:09:19.163Z,90709.70
2023-03-14T15:11:48.531Z,90709.70
2023-03-14T15:14:17.019Z,90706.81
2023-03-14T15:16:45.407Z,90701.73
2023-03-14T15:19:24.846Z,90698.19
2023-03-14T15:21:54.473Z,90700.47
2023-03-14T15:24:23.916Z,90699.13
2023-03-14T15:26:52.733Z,90697.20
2023-03-14T15:29:21.272Z,90696.83
2023-03-14T15:31:49.827Z,90698.24
2023-03-14T15:34:18.360Z,90697.91
2023-03-14T15:36:46.674Z,90699.05
2023-03-14T15:39:15.054Z,90696.85
2023-03-14T15:41:43.580Z,90701.02
2023-03-14T15:44:11.961Z,90699.11
2023-03-14T15:46:40.266Z,90699.03
2023-03-14T15:49:09.416Z,90699.21
2023-03-14T15:51:37.698Z,90702.67
2023-03-14T15:54:06.212Z,90699.61
2023-03-14T15:56:34.611Z,90698.45
2023-03-14T15:59:02.971Z,90697.58
2023-03-14T16:01:31.364Z,90693.59
2023-03-14T16:03:59.818Z,90696.11
2023-03-14T16:06:28.306Z,90696.95
2023-03-14T16:08:56.541Z,90698.46
2023-03-14T16:11:24.874Z,90697.94
2023-03-14T16:13:53.283Z,90703.25
2023-03-14T16:16:30.825Z,90706.14
2023-03-14T16:18:59.479Z,90705.88
2023-03-14T16:21:27.927Z,90704.83
2023-03-14T16:23:56.377Z,90709.55
2023-03-14T16:26:24.826Z,90708.91
2023-03-14T16:28:54.201Z,90703.94
2023-03-14T16:31:23.950Z,90709.07
2023-03-14T16:33:52.518Z,90713.77
2023-03-14T16:36:21.055Z,90715.12
2023-03-14T16:38:49.907Z,90714.57
2023-03-14T16:41:20.827Z,90713.78
2023-03-14T16:43:54.428Z,90718.75
2023-03-14T16:46:23.245Z,90721.24
2023-03-14T16:49:00.126Z,90720.42
2023-03-14T16:51:28.787Z,90722.88
2023-03-14T16:53:57.342Z,90726.27
2023-03-14T16:56:28.254Z,90726.14
2023-03-14T16:58:56.590Z,90731.44
2023-03-14T17:01:24.971Z,90727.82
2023-03-14T17:03:53.800Z,90728.85
2023-03-14T17:06:45.430Z,90722.21
2023-03-14T17:09:13.820Z,90722.66
2023-03-14T17:11:45.336Z,90721.87
2023-03-14T17:14:13.791Z,90723.83
2023-03-14T17:16:42.168Z,90723.89
2023-03-14T17:19:10.975Z,90720.71
2023-03-14T17:21:42.503Z,90715.77
2023-03-14T17:24:11.290Z,90719.02
2023-03-14T17:26:45.987Z,90724.00
2023-03-14T17:29:14.802Z,90721.51
2023-03-14T17:31:55.423Z,90724.68
2023-03-14T17:34:33.227Z,90727.53
2023-03-14T17:37:06.834Z,90729.46
2023-03-14T17:39:39.611Z,90724.23
2023-03-14T17:42:08.877Z,90719.02
2023-03-14T17:44:42.892Z,90714.64
2023-03-14T17:47:20.879Z,90714.85
2023-03-14T17:49:49.630Z,90717.47
2023-03-14T17:52:18.208Z,90720.25
2023-03-14T17:54:46.743Z,90715.13
2023-03-14T17:57:17.767Z,90718.27
2023-03-14T17:59:46.648Z,90713.05
2023-03-14T18:02:18.493Z,90711.33
2023-03-14T18:05:04.557Z,90708.77
2023-03-14T18:07:58.928Z,90706.60
2023-03-14T18:10:53.138Z,90704.73
2023-03-14T18:13:26.719Z,90704.27
2023-03-14T18:16:14.722Z,90696.52
2023-03-14T18:18:46.392Z,90692.39
2023-03-14T18:21:29.888Z,90695.83
2023-03-14T18:23:58.680Z,90695.92
2023-03-14T18:26:49.569Z,90692.94
2023-03-14T18:29:37.553Z,90704.34
2023-03-14T18:32:37.293Z,90705.73
2023-03-14T18:35:26.124Z,90709.25
2023-03-14T18:38:37.540Z,90713.70
2023-03-14T18:41:24.518Z,90716.41
2023-03-14T18:43:56.358Z,90726.48
2023-03-14T18:46:39.484Z,90726.90
2023-03-14T18:49:31.543Z,90725.86
2023-03-14T18:52:00.486Z,90719.40
2023-03-14T18:54:31.738Z,90721.48
2023-03-14T18:57:00.533Z,90723.10
2023-03-14T18:59:35.541Z,90730.23
2023-03-14T19:02:09.895Z,90733.02
2023-03-14T19:04:54.152Z,90736.45
2023-03-14T19:08:03.081Z,90734.14
2023-03-14T19:11:10.259Z,90734.57
2023-03-14T19:14:23.045Z,90730.74
2023-03-14T19:17:20.780Z,90728.35
2023-03-14T19:19:58.746Z,90729.34
2023-03-14T19:22:46.825Z,90731.98
2023-03-14T19:26:04.687Z,90727.61
2023-03-14T19:28:55.905Z,90729.37
2023-03-14T19:32:15.251Z,90730.44
2023-03-14T19:35:24.083Z,90730.90
2023-03-14T19:37:55.440Z,90724.40
2023-03-14T19:40:43.193Z,90723.06
2023-03-14T19:43:17.432Z,90720.80
2023-03-14T19:45:46.132Z,90720.98
2023-03-14T19:48:30.547Z,90722.52
2023-03-14T19:51:15.750Z,90721.77
2023-03-14T19:53:44.577Z,90717.55
2023-03-14T19:56:26.670Z,90718.30
2023-03-14T19:59:00.497Z,90716.20
2023-03-14T20:01:35.339Z,90718.23
2023-03-14T20:04:14.781Z,90720.91
2023-03-14T20:07:02.028Z,90720.61
2023-03-14T20:09:59.015Z,90718.89
2023-03-14T20:12:46.192Z,90709.80
2023-03-14T20:15:29.068Z,90714.00
2023-03-14T20:18:00.571Z,90710.84
2023-03-14T20:20:35.017Z,90712.27
2023-03-14T20:23:37.487Z,90715.48
2023-03-14T20:26:13.420Z,90713.88
2023-03-14T20:29:07.385Z,90718.23
2023-03-14T20:31:40.311Z,90719.73
2023-03-14T20:34:09.004Z,90716.05
2023-03-14T20:36:42.999Z,90712.55
2023-03-14T20:39:19.105Z,90710.56
2023-03-14T20:41:51.017Z,90708.83
2023-03-14T20:44:22.406Z,90708.57
2023-03-14T20:47:42.632Z,90710.19
2023-03-14T20:50:20.934Z,90709.42
2023-03-14T20:53:02.305Z,90712.41
2023-03-14T20:55:31.062Z,90716.20
2023-03-14T20:58:00.805Z,90715.43
2023-03-14T21:00:30.678Z,90717.89
2023-03-14T21:03:10.735Z,90717.66
2023-03-14T21:06:24.789Z,90721.51
2023-03-14T21:09:23.825Z,90721.80
2023-03-14T21:12:24.807Z,90718.45
2023-03-14T21:15:43.911Z,90717.89
2023-03-14T21:18:18.308Z,90717.48
2023-03-14T21:21:09.191Z,90711.61
2023-03-14T21:23:46.864Z,90709.30
2023-03-14T21:26:17.745Z,90703.70
2023-03-14T21:28:56.843Z,90704.80
2023-03-14T21:31:28.685Z,90702.84
2023-03-14T21:34:05.398Z,90696.39
2023-03-14T21:36:38.472Z,90689.45
2023-03-14T21:39:14.453Z,90690.16
2023-03-14T21:41:46.273Z,90688.50
2023-03-14T21:44:20.476Z,90687.19
2023-03-14T21:47:10.144Z,90689.77
2023-03-14T21:49:42.176Z,90691.13
2023-03-14T21:52:26.189Z,90694.88
2023-03-14T21:54:59.406Z,90689.64
2023-03-14T21:57:30.199Z,90681.27
2023-03-14T22:00:01.598Z,90680.40
2023-03-14T22:03:12.975Z,90678.95
2023-03-14T22:06:14.268Z,90674.52
2023-03-14T22:08:50.771Z,90674.48
2023-03-14T22:11:41.561Z,90671.08
2023-03-14T22:15:11.941Z,90667.76
2023-03-14T22:18:34.938Z,90667.71
2023-03-14T22:22:12.821Z,90668.86
2023-03-14T22:25:52.002Z,90662.95
2023-03-14T22:29:06.051Z,90659.70
2023-03-14T22:31:46.767Z,90653.45
2023-03-14T22:34:25.616Z,90649.36
2023-03-14T22:37:23.617Z,90643.25
2023-03-14T22:40:09.520Z,90638.48
2023-03-14T22:43:57.489Z,90636.92
2023-03-14T22:47:01.194Z,90632.70
2023-03-14T22:49:44.612Z,90634.19
2023-03-14T22:53:13.863Z,90637.11
2023-03-14T22:55:50.893Z,90638.60
2023-03-14T22:59:10.140Z,90638.91
2023-03-14T23:01:41.954Z,90632.84
2023-03-14T23:04:34.726Z,90633.52
2023-03-14T23:07:27.911Z,90629.23
2023-03-14T23:10:10.496Z,90623.29
2023-03-14T23:13:13.942Z,90622.92
2023-03-14T23:15:55.481Z,90618.93
2023-03-14T23:19:08.661Z,90613.89
2023-03-14T23:22:10.565Z,90611.45
2023-03-14T23:24:49.952Z,90612.20
2023-03-14T23:27:46.532Z,90612.30
2023-03-14T23:30:48.074Z,90615.88
2023-03-14T23:34:37.276Z,90615.73
2023-03-14T23:38:26.648Z,90611.52
2023-03-14T23:41:38.645Z,90610.92
2023-03-14T23:44:30.343Z,90602.98
2023-03-14T23:47:13.313Z,90601.27
2023-03-14T23:49:51.139Z,90599.69
2023-03-14T23:52:46.983Z,90598.77
2023-03-14T23:56:27.388Z,90593.34
2023-03-14T23:59:26.560Z,90592.30
